Hebron, New Hampshire
Current Conditions -  °F | °C
As of 5:35 PM on Wednesday 22 Oct 2014 (Local Time) from K1P1 Reporting Station
Light Rain Light Rain  
Wind Chill: 11°   Ceiling: 3700
Heat Index: 11°   Visibility: 10mi
Dew Point:   Wind: 10mph
Humidity: 84%   Direction: 40°NE
Pressure: 30.04"   Gusts: 18mph
Location:  43.69°N, 71.81°W
Report Text: K1P1 222135Z AUTO 04009G16KT 020V080 10SM -RA OVC037 11/09 A3004 RMK AO2 T01130087
Loading
Personal Weather Stations






























Interactive Weather Map
Tropical Storm Tracking
New forecast layout! Learn more

10-Day Weather Forecast

Advertisements
Track Severe Weather on mobile